Mountain Village, Alaska
Current Conditions -  °F | °C
As of 10:56 PM on Thursday 30 Oct 2014 (Local Time) from PAMO Reporting Station
Clear Clear  
Wind Chill: -4°   Ceiling: Unl
Heat Index: 12°   Visibility: 10mi
Dew Point:   Wind: 15mph
Humidity: 88%   Direction: 50°NE
Pressure: 29.65"   Gusts: NA
Location:  62.09°N, 163.73°W
Report Text: PAMO 310656Z AUTO 05013KT 10SM CLR M11/M13 A2965 RMK AO2 TSNO T11111127 SLP926 $
Loading
Personal Weather Stations






























Interactive Weather Map
Tropical Storm Tracking
New forecast layout! Learn more

10-Day Weather Forecast

Advertisements
Track Severe Weather on mobile